createdAt,value
2019-02-11T00:02:38.138Z,3.90
2019-02-11T00:06:43.585Z,3.90
2019-02-11T00:10:48.951Z,3.90
2019-02-11T00:14:54.299Z,3.90
2019-02-11T00:18:59.703Z,3.90
2019-02-11T00:23:05.487Z,3.90
2019-02-11T00:27:10.763Z,3.90
2019-02-11T00:31:16.249Z,3.90
2019-02-11T00:35:21.647Z,3.80
2019-02-11T00:39:27.074Z,3.80
2019-02-11T00:43:32.869Z,3.80
2019-02-11T00:47:38.316Z,3.80
2019-02-11T00:51:43.630Z,3.70
2019-02-11T00:55:48.979Z,3.80
2019-02-11T00:59:54.319Z,3.80
2019-02-11T01:03:59.697Z,3.80
2019-02-11T01:08:05.100Z,3.80
2019-02-11T01:12:10.306Z,3.80
2019-02-11T01:16:15.707Z,3.80
2019-02-11T01:20:21.120Z,3.80
2019-02-11T01:24:26.482Z,3.90
2019-02-11T01:28:31.668Z,3.90
2019-02-11T01:32:37.093Z,3.90
2019-02-11T01:36:42.257Z,3.90
2019-02-11T01:40:47.780Z,4.00
2019-02-11T01:44:53.344Z,4.00
2019-02-11T01:48:58.699Z,4.00
2019-02-11T01:53:03.944Z,4.00
2019-02-11T01:57:09.395Z,4.00
2019-02-11T02:01:14.804Z,4.10
2019-02-11T02:05:20.485Z,4.00
2019-02-11T02:09:26.070Z,4.00
2019-02-11T02:13:31.621Z,4.00
2019-02-11T02:17:37.381Z,4.00
2019-02-11T02:21:42.761Z,4.00
2019-02-11T02:25:48.190Z,4.00
2019-02-11T02:29:53.364Z,4.00
2019-02-11T02:33:58.721Z,4.00
2019-02-11T02:38:04.072Z,4.00
2019-02-11T02:42:09.510Z,4.00
2019-02-11T02:46:14.788Z,4.10
2019-02-11T02:50:20.208Z,4.10
2019-02-11T02:54:25.850Z,4.10
2019-02-11T02:58:31.351Z,4.10
2019-02-11T03:02:36.680Z,4.10
2019-02-11T03:06:42.132Z,4.20
2019-02-11T03:10:47.536Z,4.20
2019-02-11T03:14:53.036Z,4.20
2019-02-11T03:18:58.308Z,4.20
2019-02-11T03:23:03.814Z,4.20
2019-02-11T03:27:09.153Z,4.20
2019-02-11T03:31:14.841Z,4.20
2019-02-11T03:35:20.274Z,4.20
2019-02-11T03:39:26.330Z,4.20
2019-02-11T03:43:31.800Z,4.20
2019-02-11T03:47:37.191Z,4.20
2019-02-11T03:51:42.671Z,4.30
2019-02-11T03:55:48.076Z,4.30
2019-02-11T03:59:53.635Z,4.30
2019-02-11T04:03:59.345Z,4.30
2019-02-11T04:08:05.041Z,4.30
2019-02-11T04:12:10.601Z,4.40
2019-02-11T04:16:15.970Z,4.30
2019-02-11T04:20:21.380Z,4.30
2019-02-11T04:24:26.739Z,4.30
2019-02-11T04:28:32.581Z,4.30
2019-02-11T04:32:37.997Z,4.30
2019-02-11T04:36:43.352Z,4.30
2019-02-11T04:40:48.836Z,4.30
2019-02-11T04:44:54.344Z,4.30
2019-02-11T04:48:59.712Z,4.30
2019-02-11T04:53:05.078Z,4.20
2019-02-11T04:57:10.431Z,4.20
2019-02-11T05:01:15.855Z,4.10
2019-02-11T05:05:21.281Z,4.20
2019-02-11T05:09:26.706Z,4.20
2019-02-11T05:13:32.005Z,4.20
2019-02-11T05:17:37.658Z,4.20
2019-02-11T05:21:43.081Z,4.30
2019-02-11T05:25:48.909Z,4.20
2019-02-11T05:29:54.306Z,4.20
2019-02-11T05:33:59.519Z,4.20
2019-02-11T05:38:04.992Z,4.10
2019-02-11T05:42:10.407Z,4.10
2019-02-11T05:46:15.934Z,4.00
2019-02-11T05:50:21.287Z,4.00
2019-02-11T05:54:27.461Z,4.00
2019-02-11T05:58:32.748Z,4.10
2019-02-11T06:02:38.205Z,4.00
2019-02-11T06:06:43.471Z,4.00
2019-02-11T06:10:48.826Z,4.00
2019-02-11T06:14:58.249Z,3.90
2019-02-11T06:19:01.254Z,3.80
2019-02-11T06:23:06.695Z,3.70
2019-02-11T06:27:12.299Z,3.80
2019-02-11T06:31:17.681Z,3.90
2019-02-11T06:35:23.111Z,3.90
2019-02-11T06:39:28.542Z,3.90
2019-02-11T06:43:34.233Z,3.90
2019-02-11T06:47:39.590Z,3.90
2019-02-11T06:51:44.872Z,3.90
2019-02-11T06:55:50.314Z,3.90
2019-02-11T06:59:55.747Z,4.00
2019-02-11T07:04:01.131Z,4.00
2019-02-11T07:08:07.981Z,4.00
2019-02-11T07:12:14.580Z,4.10
2019-02-11T07:16:20.220Z,4.00
2019-02-11T07:20:25.659Z,4.00
2019-02-11T07:24:31.025Z,4.10
2019-02-11T07:28:36.379Z,4.10
2019-02-11T07:32:42.094Z,4.10
2019-02-11T07:36:47.853Z,4.10
2019-02-11T07:40:53.275Z,4.00
2019-02-11T07:45:05.400Z,4.10
2019-02-11T07:49:10.788Z,4.10
2019-02-11T07:53:16.236Z,4.10
2019-02-11T07:57:21.668Z,4.10
2019-02-11T08:01:27.063Z,4.20
2019-02-11T08:05:32.487Z,4.20
2019-02-11T08:09:37.932Z,4.20
2019-02-11T08:13:43.278Z,4.20
2019-02-11T08:17:48.722Z,4.20
2019-02-11T08:21:53.967Z,4.30
2019-02-11T08:25:59.782Z,4.30
2019-02-11T08:30:05.376Z,4.30
2019-02-11T08:34:10.723Z,4.30
2019-02-11T08:38:15.973Z,4.40
2019-02-11T08:42:21.587Z,4.50
2019-02-11T08:46:26.929Z,4.50
2019-02-11T08:50:32.704Z,4.70
2019-02-11T08:54:38.127Z,4.70
2019-02-11T08:58:43.496Z,4.70
2019-02-11T09:02:48.963Z,4.70
2019-02-11T09:06:54.721Z,4.70
2019-02-11T09:11:00.150Z,4.80
2019-02-11T09:15:07.208Z,4.80
2019-02-11T09:19:12.639Z,5.00
2019-02-11T09:23:18.165Z,5.20
2019-02-11T09:27:23.912Z,5.30
2019-02-11T09:31:29.630Z,5.30
2019-02-11T09:35:35.060Z,5.50
2019-02-11T09:39:40.415Z,5.50
2019-02-11T09:43:45.861Z,5.70
2019-02-11T09:47:51.273Z,5.60
2019-02-11T09:51:56.922Z,5.50
2019-02-11T09:56:02.609Z,5.60
2019-02-11T10:00:08.598Z,5.90
2019-02-11T10:04:14.038Z,6.10
2019-02-11T10:08:19.444Z,6.20
2019-02-11T10:12:24.870Z,6.10
2019-02-11T10:16:30.381Z,6.10
2019-02-11T10:20:36.140Z,6.20
2019-02-11T10:24:41.741Z,6.30
2019-02-11T10:28:47.184Z,6.40
2019-02-11T10:32:52.598Z,6.30
2019-02-11T10:36:58.033Z,6.30
2019-02-11T10:41:03.425Z,6.40
2019-02-11T10:45:10.976Z,6.60
2019-02-11T10:49:16.750Z,6.70
2019-02-11T10:53:22.190Z,6.80
2019-02-11T10:57:27.679Z,6.70
2019-02-11T11:01:33.754Z,6.70
2019-02-11T11:05:39.172Z,6.70
2019-02-11T11:09:44.604Z,6.70
2019-02-11T11:13:50.160Z,6.80
2019-02-11T11:17:55.584Z,7.00
2019-02-11T11:22:01.106Z,6.80
2019-02-11T11:26:06.557Z,6.80
2019-02-11T11:30:13.104Z,6.70
2019-02-11T11:34:18.808Z,6.40
2019-02-11T11:38:24.591Z,6.40
2019-02-11T11:42:29.929Z,6.40
2019-02-11T11:46:45.640Z,6.10
2019-02-11T11:50:42.500Z,6.10
2019-02-11T11:54:47.982Z,6.00
2019-02-11T11:58:53.439Z,6.00
2019-02-11T12:03:02.672Z,6.00
2019-02-11T12:07:05.932Z,6.10
2019-02-11T12:11:11.454Z,5.90
2019-02-11T12:15:19.324Z,5.80
2019-02-11T12:19:24.779Z,5.70
2019-02-11T12:23:30.563Z,5.80
2019-02-11T12:27:36.067Z,6.00
2019-02-11T12:31:41.542Z,5.90
2019-02-11T12:35:46.893Z,5.70
2019-02-11T12:39:52.351Z,5.70
2019-02-11T12:43:57.724Z,5.80
2019-02-11T12:48:03.481Z,5.90
2019-02-11T12:52:08.988Z,6.10
2019-02-11T12:56:14.340Z,6.30
2019-02-11T13:00:21.949Z,6.30
2019-02-11T13:04:27.533Z,6.60
2019-02-11T13:08:35.086Z,6.70
2019-02-11T13:12:40.303Z,6.80
2019-02-11T13:16:45.619Z,6.80
2019-02-11T13:20:51.055Z,6.80
2019-02-11T13:24:56.492Z,6.60
2019-02-11T13:29:02.573Z,6.50
2019-02-11T13:33:07.946Z,6.20
2019-02-11T13:37:13.412Z,5.70
2019-02-11T13:41:18.852Z,5.40
2019-02-11T13:45:24.347Z,5.50
2019-02-11T13:49:29.966Z,5.70
2019-02-11T13:53:35.642Z,5.70
2019-02-11T13:57:41.361Z,5.70
2019-02-11T14:01:46.799Z,5.90
2019-02-11T14:05:52.254Z,6.00
2019-02-11T14:10:01.534Z,6.00
2019-02-11T14:14:04.805Z,5.80
2019-02-11T14:18:14.799Z,5.80
2019-02-11T14:22:19.556Z,5.60
2019-02-11T14:26:24.801Z,5.70
2019-02-11T14:30:30.504Z,6.20
2019-02-11T14:34:35.908Z,6.30
2019-02-11T14:38:41.364Z,6.10
2019-02-11T14:42:47.238Z,6.10
2019-02-11T14:46:52.620Z,6.20
2019-02-11T14:50:58.077Z,6.20
2019-02-11T14:55:03.572Z,6.40
2019-02-11T14:59:09.674Z,6.50
2019-02-11T15:03:15.122Z,6.60
2019-02-11T15:07:20.921Z,6.90
2019-02-11T15:11:26.915Z,7.30
2019-02-11T15:15:32.458Z,8.50
2019-02-11T15:19:37.878Z,9.00
2019-02-11T15:23:43.388Z,8.40
2019-02-11T15:27:48.918Z,8.40
2019-02-11T15:31:54.163Z,7.90
2019-02-11T15:35:59.367Z,8.40
2019-02-11T15:40:05.546Z,8.10
2019-02-11T15:44:11.373Z,8.30
2019-02-11T15:48:16.760Z,8.10
2019-02-11T15:52:23.674Z,7.60
2019-02-11T15:56:29.291Z,7.10
2019-02-11T16:00:34.742Z,7.20
2019-02-11T16:04:40.520Z,6.80
2019-02-11T16:08:46.079Z,6.70
2019-02-11T16:12:51.529Z,6.60
2019-02-11T16:16:57.235Z,6.50
2019-02-11T16:21:02.656Z,6.30
2019-02-11T16:25:10.490Z,6.30
2019-02-11T16:29:15.949Z,6.20
2019-02-11T16:33:21.811Z,6.10
2019-02-11T16:37:27.714Z,5.90
2019-02-11T16:41:33.197Z,5.80
2019-02-11T16:45:38.655Z,5.60
2019-02-11T16:49:44.135Z,5.50
2019-02-11T16:53:49.533Z,5.30
2019-02-11T16:57:54.998Z,5.20
2019-02-11T17:02:00.387Z,5.30
2019-02-11T17:06:06.218Z,5.30
2019-02-11T17:10:12.960Z,5.00
2019-02-11T17:14:18.424Z,5.10
2019-02-11T17:18:29.913Z,5.10
2019-02-11T17:22:35.794Z,5.00
2019-02-11T17:26:41.190Z,5.00
2019-02-11T17:30:46.874Z,4.90
2019-02-11T17:34:52.648Z,4.60
2019-02-11T17:38:58.104Z,4.50
2019-02-11T17:43:03.698Z,4.70
2019-02-11T17:47:09.200Z,4.50
2019-02-11T17:51:14.672Z,4.30
2019-02-11T17:55:21.110Z,4.20
2019-02-11T17:59:27.067Z,4.10
2019-02-11T18:03:32.525Z,4.00
2019-02-11T18:07:38.056Z,3.70
2019-02-11T18:11:43.844Z,3.60
2019-02-11T18:15:49.474Z,3.50
2019-02-11T18:19:55.028Z,3.40
2019-02-11T18:24:00.664Z,3.30
2019-02-11T18:28:06.798Z,3.10
2019-02-11T18:32:12.302Z,3.00
2019-02-11T18:36:17.786Z,2.80
2019-02-11T18:40:23.240Z,2.70
2019-02-11T18:44:28.565Z,2.70
2019-02-11T18:48:34.107Z,2.50
2019-02-11T18:52:39.543Z,2.40
2019-02-11T18:56:45.143Z,2.30
2019-02-11T19:00:52.844Z,2.20
2019-02-11T19:04:58.100Z,2.20
2019-02-11T19:09:04.556Z,2.10
2019-02-11T19:13:11.205Z,2.10
2019-02-11T19:17:16.668Z,2.00
2019-02-11T19:21:21.953Z,2.00
2019-02-11T19:25:27.510Z,1.90
2019-02-11T19:29:32.873Z,1.80
2019-02-11T19:33:38.344Z,1.80
2019-02-11T19:37:44.161Z,2.00
2019-02-11T19:41:49.624Z,2.20
2019-02-11T19:45:55.397Z,2.30
2019-02-11T19:50:00.833Z,2.60
2019-02-11T19:54:06.277Z,2.40
2019-02-11T19:58:11.685Z,2.40
2019-02-11T20:02:18.856Z,2.40
2019-02-11T20:06:24.586Z,2.50
2019-02-11T20:10:30.274Z,2.40
2019-02-11T20:14:35.920Z,2.30
2019-02-11T20:18:41.277Z,2.30
2019-02-11T20:22:46.952Z,2.20
2019-02-11T20:26:53.209Z,2.20
2019-02-11T20:30:58.582Z,2.20
2019-02-11T20:35:04.337Z,2.30
2019-02-11T20:39:09.959Z,2.30
2019-02-11T20:43:15.384Z,2.20
2019-02-11T20:47:22.832Z,2.20
2019-02-11T20:51:27.993Z,2.10
2019-02-11T20:55:33.720Z,2.00
2019-02-11T20:59:39.174Z,1.90
2019-02-11T21:03:44.608Z,1.80
2019-02-11T21:07:50.053Z,1.70
2019-02-11T21:11:55.473Z,1.60
2019-02-11T21:16:00.808Z,1.50
2019-02-11T21:20:08.367Z,1.30
2019-02-11T21:24:14.074Z,1.30
2019-02-11T21:28:19.607Z,1.40
2019-02-11T21:32:25.072Z,1.50
2019-02-11T21:36:30.499Z,1.50
2019-02-11T21:40:35.922Z,1.70
2019-02-11T21:44:41.631Z,1.80
2019-02-11T21:48:46.926Z,2.00
2019-02-11T21:52:52.628Z,2.00
2019-02-11T21:56:58.330Z,1.90
2019-02-11T22:01:03.765Z,2.10
2019-02-11T22:05:09.234Z,2.10
2019-02-11T22:09:15.195Z,2.10
2019-02-11T22:13:20.755Z,2.10
2019-02-11T22:17:26.214Z,2.20
2019-02-11T22:21:31.557Z,2.20
2019-02-11T22:25:37.089Z,2.20
2019-02-11T22:29:42.436Z,2.30
2019-02-11T22:33:47.803Z,2.30
2019-02-11T22:37:53.208Z,2.30
2019-02-11T22:41:58.711Z,2.30
2019-02-11T22:46:04.207Z,2.30
2019-02-11T22:50:11.088Z,2.30
2019-02-11T22:54:16.438Z,2.40
2019-02-11T22:58:22.085Z,2.40
2019-02-11T23:02:27.506Z,2.30
2019-02-11T23:06:32.960Z,2.30
2019-02-11T23:10:38.314Z,2.20
2019-02-11T23:14:43.592Z,2.10
2019-02-11T23:18:48.944Z,2.10
2019-02-11T23:22:54.360Z,2.00
2019-02-11T23:26:59.789Z,2.00
2019-02-11T23:31:05.155Z,2.00
2019-02-11T23:35:10.574Z,1.90
2019-02-11T23:39:17.202Z,1.70
2019-02-11T23:43:22.627Z,1.70
2019-02-11T23:47:28.333Z,1.60
2019-02-11T23:51:33.765Z,1.60
2019-02-11T23:55:39.144Z,1.60
2019-02-11T23:59:44.599Z,1.50
